Time;durP1;ratioP1;P1;durP2;ratioP2;P2;SDS_P1;SDS_P2;PMS_P1;PMS_P2;Temp;Humidity;BMP_temperature;BMP_pressure;BME280_temperature;BME280_humidity;BME280_pressure;Samples;Min_cycle;Max_cycle;Signal;HPM_P1;HPM_P2
2022/10/01 00:01:14;;;;;;;;;;;7.10;99.90;;;;;;5044711;28;19917;-72
2022/10/01 00:03:40;;;;;;;;;;;7.10;99.90;;;;;;5044745;28;19968;-72
2022/10/01 00:06:08;;;;;;;;;;;7.10;99.90;;;;;;5044202;28;19924;-72
2022/10/01 00:08:34;;;;;;;;;;;7.10;99.90;;;;;;5044567;28;19909;-72
2022/10/01 00:11:00;;;;;;;;;;;7.10;99.90;;;;;;5027905;28;19924;-72
2022/10/01 00:13:28;;;;;;;;;;;7.10;99.90;;;;;;5044779;28;19947;-72
2022/10/01 00:15:54;;;;;;;;;;;7.10;99.90;;;;;;5044295;28;20251;-73
2022/10/01 00:18:19;;;;;;;;;;;7.10;99.90;;;;;;5044052;28;19917;-72
2022/10/01 00:20:45;;;;;;;;;;;7.10;99.90;;;;;;5045398;28;19909;-72
2022/10/01 00:23:11;;;;;;;;;;;7.10;99.90;;;;;;5045361;28;19924;-72
2022/10/01 00:25:37;;;;;;;;;;;7.10;99.90;;;;;;5044139;28;19913;-72
2022/10/01 00:28:03;;;;;;;;;;;7.10;99.90;;;;;;5043577;28;20215;-72
2022/10/01 00:30:29;;;;;;;;;;;7.10;99.90;;;;;;5044130;28;20008;-72
2022/10/01 00:32:54;;;;;;;;;;;7.10;99.90;;;;;;5011107;28;19917;-72
2022/10/01 00:35:21;;;;;;;;;;;7.20;99.90;;;;;;5027403;28;19971;-72
2022/10/01 00:37:51;;;;;;;;;;;7.20;99.90;;;;;;5043656;28;19909;-72
2022/10/01 00:40:20;;;;;;;;;;;7.30;99.90;;;;;;5044028;28;19909;-72
2022/10/01 00:42:46;;;;;;;;;;;7.30;99.90;;;;;;5027328;28;19916;-72
2022/10/01 00:45:12;;;;;;;;;;;7.30;99.90;;;;;;5044908;28;19913;-72
2022/10/01 00:47:49;;;;;;;;;;;7.40;99.90;;;;;;5043406;28;19939;-72
2022/10/01 00:50:18;;;;;;;;;;;7.40;99.90;;;;;;5027216;28;19909;-72
2022/10/01 00:52:50;;;;;;;;;;;7.50;99.90;;;;;;5043661;28;19925;-72
2022/10/01 00:55:19;;;;;;;;;;;7.50;99.90;;;;;;5043689;28;20115;-71
2022/10/01 00:57:45;;;;;;;;;;;7.50;99.90;;;;;;5026719;28;19909;-72
2022/10/01 01:00:12;;;;;;;;;;;7.60;99.90;;;;;;5042186;28;20031;-72
2022/10/01 01:02:37;;;;;;;;;;;7.60;99.90;;;;;;5027086;28;19947;-72
2022/10/01 01:05:03;;;;;;;;;;;7.60;99.90;;;;;;5044492;28;20204;-72
2022/10/01 01:07:29;;;;;;;;;;;7.70;99.90;;;;;;5043055;28;19948;-73
2022/10/01 01:09:55;;;;;;;;;;;7.70;99.90;;;;;;5043387;28;19909;-71
2022/10/01 01:13:00;;;;;;;;;;;7.70;99.90;;;;;;5026840;28;19971;-72
2022/10/01 01:15:45;;;;;;;;;;;7.70;99.90;;;;;;5042511;28;19940;-72
2022/10/01 01:18:18;;;;;;;;;;;7.70;99.90;;;;;;5044085;28;19909;-72
2022/10/01 01:20:55;;;;;;;;;;;7.70;99.90;;;;;;5043210;28;20214;-72
2022/10/01 01:23:48;;;;;;;;;;;7.80;99.90;;;;;;5026675;28;19916;-72
2022/10/01 01:26:21;;;;;;;;;;;7.80;99.90;;;;;;5043254;28;19921;-73
2022/10/01 01:28:48;;;;;;;;;;;7.80;99.90;;;;;;5042873;28;19909;-72
2022/10/01 01:31:17;;;;;;;;;;;7.80;99.90;;;;;;5026581;28;19960;-72
2022/10/01 01:33:44;;;;;;;;;;;7.80;99.90;;;;;;5026543;28;19915;-72
2022/10/01 01:36:16;;;;;;;;;;;7.80;99.90;;;;;;5043805;28;19932;-72
2022/10/01 01:38:50;;;;;;;;;;;7.80;99.90;;;;;;5026400;28;19909;-72
2022/10/01 01:41:18;;;;;;;;;;;7.70;99.90;;;;;;5025758;28;19940;-72
2022/10/01 01:43:45;;;;;;;;;;;7.70;99.90;;;;;;5026212;28;19913;-72
2022/10/01 01:46:11;;;;;;;;;;;7.70;99.90;;;;;;5025961;28;19920;-73
2022/10/01 01:48:38;;;;;;;;;;;7.70;99.90;;;;;;5026301;28;19917;-73
2022/10/01 01:51:05;;;;;;;;;;;7.70;99.90;;;;;;5042190;28;19952;-73
2022/10/01 01:53:31;;;;;;;;;;;7.70;99.90;;;;;;5043810;28;20112;-73
2022/10/01 01:55:59;;;;;;;;;;;7.60;99.90;;;;;;5042549;28;19924;-72
2022/10/01 01:58:26;;;;;;;;;;;7.60;99.90;;;;;;5042352;28;20246;-72
2022/10/01 02:00:52;;;;;;;;;;;7.60;99.90;;;;;;5026000;28;19925;-72
2022/10/01 02:03:20;;;;;;;;;;;7.60;99.90;;;;;;5042797;28;20064;-71
2022/10/01 02:06:05;;;;;;;;;;;7.50;99.90;;;;;;5043329;28;20204;-72
2022/10/01 02:08:39;;;;;;;;;;;7.50;99.90;;;;;;5041792;28;19909;-72
2022/10/01 02:11:28;;;;;;;;;;;7.40;99.90;;;;;;5025228;28;19913;-72
2022/10/01 02:14:06;;;;;;;;;;;7.30;99.90;;;;;;5053573;28;20081;-72
2022/10/01 02:16:42;;;;;;;;;;;7.30;99.90;;;;;;5025523;28;20225;-72
2022/10/01 02:19:28;;;;;;;;;;;7.30;99.90;;;;;;5042130;28;19924;-72
2022/10/01 02:22:04;;;;;;;;;;;7.30;99.90;;;;;;5025634;28;19909;-72
2022/10/01 02:24:37;;;;;;;;;;;7.20;99.90;;;;;;5041594;28;19909;-72
2022/10/01 02:27:07;;;;;;;;;;;7.20;99.90;;;;;;5041540;28;19920;-72
2022/10/01 02:29:33;;;;;;;;;;;7.20;99.90;;;;;;5025444;28;19932;-72
2022/10/01 02:31:59;;;;;;;;;;;7.10;99.90;;;;;;5041981;28;19909;-72
2022/10/01 02:34:27;;;;;;;;;;;7.10;99.90;;;;;;5025553;28;19916;-72
2022/10/01 02:36:53;;;;;;;;;;;7.10;99.90;;;;;;5024609;28;20147;-73
2022/10/01 02:39:19;;;;;;;;;;;7.10;99.90;;;;;;5025249;28;19909;-73
2022/10/01 02:41:45;;;;;;;;;;;7.10;99.90;;;;;;5025506;28;20156;-73
2022/10/01 02:44:13;;;;;;;;;;;7.10;99.90;;;;;;5024831;28;19964;-73
2022/10/01 02:46:48;;;;;;;;;;;7.10;99.90;;;;;;5025068;28;19920;-73
2022/10/01 02:49:14;;;;;;;;;;;7.10;99.90;;;;;;5025221;28;19923;-73
2022/10/01 02:51:48;;;;;;;;;;;7.10;99.90;;;;;;5025361;28;19948;-73
2022/10/01 02:54:30;;;;;;;;;;;7.10;99.90;;;;;;5024885;28;20097;-74
2022/10/01 02:59:40;;;;;;;;;;;7.10;99.90;;;;;;5041778;28;19948;-73
2022/10/01 03:02:06;;;;;;;;;;;7.10;99.90;;;;;;5041990;28;19909;-73
2022/10/01 03:04:31;;;;;;;;;;;7.00;99.90;;;;;;5042202;28;19984;-73
2022/10/01 03:07:02;;;;;;;;;;;7.10;99.90;;;;;;5042244;28;19967;-73
2022/10/01 03:09:31;;;;;;;;;;;7.00;99.90;;;;;;5042478;28;20298;-73
2022/10/01 03:11:58;;;;;;;;;;;7.00;99.90;;;;;;5024361;28;20388;-73
2022/10/01 03:14:24;;;;;;;;;;;7.00;99.90;;;;;;5041295;28;19909;-73
2022/10/01 03:16:50;;;;;;;;;;;6.90;99.90;;;;;;5040618;28;19909;-73
2022/10/01 03:19:15;;;;;;;;;;;6.90;99.90;;;;;;5041032;28;19909;-73
2022/10/01 03:21:41;;;;;;;;;;;7.00;99.90;;;;;;5042140;28;19955;-72
2022/10/01 03:24:07;;;;;;;;;;;7.00;99.90;;;;;;5045409;28;19924;-72
2022/10/01 03:26:32;;;;;;;;;;;7.00;99.90;;;;;;5044538;28;20135;-72
2022/10/01 03:28:58;;;;;;;;;;;7.00;99.90;;;;;;5046430;28;19919;-72
2022/10/01 03:31:24;;;;;;;;;;;7.10;99.90;;;;;;5046366;28;20089;-72
2022/10/01 03:33:49;;;;;;;;;;;7.10;99.90;;;;;;5028584;28;19974;-72
2022/10/01 03:36:15;;;;;;;;;;;7.10;99.90;;;;;;5045985;28;19924;-72
2022/10/01 03:38:41;;;;;;;;;;;7.10;99.90;;;;;;5044952;28;20140;-72
2022/10/01 03:41:06;;;;;;;;;;;7.00;99.90;;;;;;5045144;28;19963;-72
2022/10/01 03:43:32;;;;;;;;;;;7.10;99.90;;;;;;5046176;28;20112;-72
2022/10/01 03:45:58;;;;;;;;;;;7.10;99.90;;;;;;5044283;28;19991;-73
2022/10/01 03:48:23;;;;;;;;;;;7.10;99.90;;;;;;5027994;28;19908;-73
2022/10/01 03:50:56;;;;;;;;;;;7.10;99.90;;;;;;5028437;28;19947;-73
2022/10/01 03:53:22;;;;;;;;;;;7.10;99.90;;;;;;5044413;28;19995;-73
2022/10/01 03:55:48;;;;;;;;;;;7.10;99.90;;;;;;5028445;28;19975;-73
2022/10/01 03:58:14;;;;;;;;;;;7.10;99.90;;;;;;5028060;28;19909;-73
2022/10/01 04:00:40;;;;;;;;;;;7.10;99.90;;;;;;5027945;28;19909;-73
2022/10/01 04:03:06;;;;;;;;;;;7.10;99.90;;;;;;5028160;28;20158;-73
2022/10/01 04:05:31;;;;;;;;;;;7.10;99.90;;;;;;5045305;28;19996;-73
2022/10/01 04:07:58;;;;;;;;;;;7.10;99.90;;;;;;5044189;28;19917;-73
2022/10/01 04:10:24;;;;;;;;;;;7.10;99.90;;;;;;5044667;28;19909;-73
2022/10/01 04:12:50;;;;;;;;;;;7.20;99.90;;;;;;5043735;28;19947;-73
2022/10/01 04:15:16;;;;;;;;;;;7.20;99.90;;;;;;5027860;28;19909;-73
2022/10/01 04:17:41;;;;;;;;;;;7.10;99.90;;;;;;5027931;28;19955;-73
2022/10/01 04:20:07;;;;;;;;;;;7.20;99.90;;;;;;5044704;28;19955;-72
2022/10/01 04:22:40;;;;;;;;;;;7.20;99.90;;;;;;5044454;28;19920;-73
2022/10/01 04:25:09;;;;;;;;;;;7.20;99.90;;;;;;5044460;28;20227;-73
2022/10/01 04:27:38;;;;;;;;;;;7.20;99.90;;;;;;5027792;28;19909;-73
2022/10/01 04:30:05;;;;;;;;;;;7.10;99.90;;;;;;5043582;28;19931;-74
2022/10/01 04:32:31;;;;;;;;;;;7.20;99.90;;;;;;5027645;28;20085;-73
2022/10/01 04:34:56;;;;;;;;;;;7.20;99.90;;;;;;5044548;28;19916;-73
2022/10/01 04:37:22;;;;;;;;;;;7.20;99.90;;;;;;5044332;28;19917;-73
2022/10/01 04:39:47;;;;;;;;;;;7.20;99.90;;;;;;5027684;28;20240;-73
2022/10/01 04:42:13;;;;;;;;;;;7.20;99.90;;;;;;5043750;28;19909;-73
2022/10/01 04:44:39;;;;;;;;;;;7.20;99.90;;;;;;5045147;28;19909;-73
2022/10/01 04:47:05;;;;;;;;;;;7.20;99.90;;;;;;5043565;28;19936;-73
2022/10/01 04:49:32;;;;;;;;;;;7.30;99.90;;;;;;5043833;28;19916;-72
2022/10/01 04:51:58;;;;;;;;;;;7.30;99.90;;;;;;5027296;28;19976;-73
2022/10/01 04:54:24;;;;;;;;;;;7.30;99.90;;;;;;5027250;28;19909;-73
2022/10/01 04:56:49;;;;;;;;;;;7.30;99.90;;;;;;5043363;28;20250;-73
2022/10/01 04:59:15;;;;;;;;;;;7.30;99.90;;;;;;5026621;28;19976;-73
2022/10/01 05:01:41;;;;;;;;;;;7.30;99.90;;;;;;5043684;28;19936;-73
2022/10/01 05:04:07;;;;;;;;;;;7.30;99.90;;;;;;5044751;28;19989;-73
2022/10/01 05:06:33;;;;;;;;;;;7.40;99.90;;;;;;5042357;28;19924;-72
2022/10/01 05:08:59;;;;;;;;;;;7.30;99.90;;;;;;5026978;28;19909;-72
2022/10/01 05:11:25;;;;;;;;;;;7.40;99.90;;;;;;5026434;28;19920;-73
2022/10/01 05:13:50;;;;;;;;;;;7.40;99.90;;;;;;5044461;28;19916;-72
2022/10/01 05:16:16;;;;;;;;;;;7.40;99.90;;;;;;5042955;28;19947;-73
2022/10/01 05:18:42;;;;;;;;;;;7.40;99.90;;;;;;5042758;28;19921;-73
2022/10/01 05:21:10;;;;;;;;;;;7.50;99.90;;;;;;5044349;28;19916;-73
2022/10/01 05:23:36;;;;;;;;;;;7.40;99.90;;;;;;5026608;28;19940;-72
2022/10/01 05:26:04;;;;;;;;;;;7.40;99.90;;;;;;5044035;28;19923;-73
2022/10/01 05:28:30;;;;;;;;;;;7.40;99.90;;;;;;5043002;28;20161;-73
2022/10/01 05:31:00;;;;;;;;;;;7.40;99.90;;;;;;5042990;28;19909;-73
2022/10/01 05:33:26;;;;;;;;;;;7.40;99.90;;;;;;5010027;28;19913;-73
2022/10/01 05:35:52;;;;;;;;;;;7.40;99.90;;;;;;5042903;28;19917;-73
2022/10/01 05:38:18;;;;;;;;;;;7.40;99.90;;;;;;5031674;28;20112;-73
2022/10/01 05:40:44;;;;;;;;;;;7.40;99.90;;;;;;5040508;28;20208;-73
2022/10/01 05:43:11;;;;;;;;;;;7.40;99.90;;;;;;5025374;28;19909;-73
2022/10/01 05:45:36;;;;;;;;;;;7.40;99.90;;;;;;5041569;28;19921;-73
2022/10/01 05:48:04;;;;;;;;;;;7.40;99.90;;;;;;5042854;28;19917;-73
2022/10/01 05:50:31;;;;;;;;;;;7.40;99.90;;;;;;5026182;28;19909;-72
2022/10/01 05:52:56;;;;;;;;;;;7.50;99.90;;;;;;5042687;28;20226;-73
2022/10/01 05:55:22;;;;;;;;;;;7.50;99.90;;;;;;5042612;28;19921;-72
2022/10/01 05:58:04;;;;;;;;;;;7.50;99.90;;;;;;5042020;28;19909;-73
2022/10/01 06:00:30;;;;;;;;;;;7.60;99.90;;;;;;5042527;28;20089;-75
2022/10/01 06:02:58;;;;;;;;;;;7.60;99.90;;;;;;5025466;28;19972;-72
2022/10/01 06:05:24;;;;;;;;;;;7.60;99.90;;;;;;5042188;28;19924;-72
2022/10/01 06:07:50;;;;;;;;;;;7.70;99.90;;;;;;5025004;28;19910;-73
2022/10/01 06:10:16;;;;;;;;;;;7.70;99.90;;;;;;5041400;28;19913;-73
2022/10/01 06:12:42;;;;;;;;;;;7.80;99.90;;;;;;5024974;28;20341;-73
2022/10/01 06:15:08;;;;;;;;;;;7.80;99.90;;;;;;5042451;28;19909;-73
2022/10/01 06:17:34;;;;;;;;;;;7.80;99.90;;;;;;5025343;28;19921;-73
2022/10/01 06:20:00;;;;;;;;;;;7.90;99.90;;;;;;5042317;28;19909;-73
2022/10/01 06:22:25;;;;;;;;;;;7.90;99.90;;;;;;5042278;28;19909;-73
2022/10/01 06:24:51;;;;;;;;;;;7.90;99.90;;;;;;5043423;28;20200;-73
2022/10/01 06:27:17;;;;;;;;;;;8.00;99.90;;;;;;5043345;28;19949;-73
2022/10/01 06:29:43;;;;;;;;;;;8.00;99.90;;;;;;5025398;28;19917;-72
2022/10/01 06:32:12;;;;;;;;;;;8.10;99.90;;;;;;5025658;28;19913;-73
2022/10/01 06:34:38;;;;;;;;;;;8.10;99.90;;;;;;5041735;28;19909;-73
2022/10/01 06:37:04;;;;;;;;;;;8.20;99.90;;;;;;5023869;28;19916;-73
2022/10/01 06:39:30;;;;;;;;;;;8.20;99.90;;;;;;5041729;28;19952;-73
2022/10/01 06:41:55;;;;;;;;;;;8.30;99.90;;;;;;5042999;28;20188;-73
2022/10/01 06:44:21;;;;;;;;;;;8.30;99.90;;;;;;5042864;28;19913;-72
2022/10/01 06:46:46;;;;;;;;;;;8.40;99.90;;;;;;5024460;28;19921;-72
2022/10/01 06:49:12;;;;;;;;;;;8.40;99.90;;;;;;5041734;28;19980;-73
2022/10/01 06:54:24;;;;;;;;;;;8.60;99.90;;;;;;5027825;28;20261;-74
2022/10/01 06:56:50;;;;;;;;;;;8.60;99.90;;;;;;5024950;28;19998;-73
2022/10/01 06:59:16;;;;;;;;;;;8.60;99.90;;;;;;5040737;28;19940;-73
2022/10/01 07:01:41;;;;;;;;;;;8.60;99.90;;;;;;5025095;28;20131;-71
2022/10/01 07:04:07;;;;;;;;;;;8.60;99.90;;;;;;5042733;28;19963;-73
2022/10/01 07:06:33;;;;;;;;;;;8.70;99.90;;;;;;5024486;28;19932;-73
2022/10/01 07:09:00;;;;;;;;;;;8.70;99.90;;;;;;5023798;28;20297;-73
2022/10/01 07:11:26;;;;;;;;;;;8.70;99.90;;;;;;5041699;28;19910;-72
2022/10/01 07:14:00;;;;;;;;;;;8.70;99.90;;;;;;5042297;28;19944;-77
2022/10/01 07:16:26;;;;;;;;;;;8.80;99.90;;;;;;5041061;28;19909;-74
2022/10/01 07:18:52;;;;;;;;;;;8.80;99.90;;;;;;5024333;28;19924;-73
2022/10/01 07:21:17;;;;;;;;;;;8.80;99.90;;;;;;5041046;28;19932;-73
2022/10/01 07:23:43;;;;;;;;;;;8.90;99.90;;;;;;5024334;28;19997;-73
2022/10/01 07:26:08;;;;;;;;;;;8.90;99.90;;;;;;5042117;28;19914;-72
2022/10/01 07:28:34;;;;;;;;;;;8.90;99.90;;;;;;5041474;28;19927;-74
2022/10/01 07:31:10;;;;;;;;;;;8.90;99.90;;;;;;5041401;28;19909;-73
2022/10/01 07:33:38;;;;;;;;;;;8.90;99.90;;;;;;5024677;28;19940;-73
2022/10/01 07:36:08;;;;;;;;;;;8.90;99.90;;;;;;5041049;28;19972;-73
2022/10/01 07:38:34;;;;;;;;;;;9.00;99.90;;;;;;5024606;28;19909;-73
2022/10/01 07:41:01;;;;;;;;;;;9.00;99.90;;;;;;5024590;28;19916;-73
2022/10/01 07:43:27;;;;;;;;;;;9.00;99.90;;;;;;5042218;28;20008;-73
2022/10/01 07:45:56;;;;;;;;;;;9.10;99.90;;;;;;5024528;28;19920;-72
2022/10/01 07:48:26;;;;;;;;;;;9.00;99.90;;;;;;5041628;28;20215;-73
2022/10/01 07:50:51;;;;;;;;;;;9.10;99.90;;;;;;5023818;28;20338;-73
2022/10/01 07:53:18;;;;;;;;;;;9.00;99.90;;;;;;5041002;28;19992;-73
2022/10/01 07:55:44;;;;;;;;;;;9.10;99.90;;;;;;5041022;28;19909;-74
2022/10/01 07:58:10;;;;;;;;;;;9.00;99.90;;;;;;5036755;28;19951;-73
2022/10/01 08:00:36;;;;;;;;;;;9.10;99.90;;;;;;5037513;28;19917;-72
2022/10/01 08:03:02;;;;;;;;;;;9.00;99.90;;;;;;5033304;28;19925;-73
2022/10/01 08:05:29;;;;;;;;;;;9.10;99.90;;;;;;5024348;28;20107;-74
2022/10/01 08:07:59;;;;;;;;;;;9.10;99.90;;;;;;5023967;28;20204;-72
2022/10/01 08:10:25;;;;;;;;;;;9.10;99.90;;;;;;5027319;28;19956;-73
2022/10/01 08:12:50;;;;;;;;;;;9.10;99.90;;;;;;5045423;28;20200;-73
2022/10/01 08:15:16;;;;;;;;;;;9.10;99.90;;;;;;5044480;28;20200;-73
2022/10/01 08:17:42;;;;;;;;;;;9.10;99.90;;;;;;5044130;28;19924;-73
2022/10/01 08:20:09;;;;;;;;;;;9.10;99.90;;;;;;5045441;28;20204;-73
2022/10/01 08:22:35;;;;;;;;;;;9.10;99.90;;;;;;5027651;28;19913;-74
2022/10/01 08:25:01;;;;;;;;;;;9.10;99.90;;;;;;5027499;28;19955;-72
2022/10/01 08:27:26;;;;;;;;;;;9.20;99.90;;;;;;5010080;28;20537;-74
2022/10/01 08:29:52;;;;;;;;;;;9.30;99.90;;;;;;5044209;28;19917;-73
2022/10/01 08:32:18;;;;;;;;;;;9.30;99.90;;;;;;5027087;28;19909;-74
2022/10/01 08:34:44;;;;;;;;;;;9.40;99.90;;;;;;5045001;28;20200;-74
2022/10/01 08:37:09;;;;;;;;;;;9.30;99.90;;;;;;5027388;28;19980;-74
2022/10/01 08:39:35;;;;;;;;;;;9.30;99.90;;;;;;5044450;28;20108;-74
2022/10/01 08:42:24;;;;;;;;;;;9.40;99.90;;;;;;5027573;28;19920;-73
2022/10/01 08:44:50;;;;;;;;;;;9.30;99.90;;;;;;5042948;28;20204;-73
2022/10/01 08:47:33;;;;;;;;;;;9.40;99.90;;;;;;5027383;28;19913;-73
2022/10/01 08:50:05;;;;;;;;;;;9.40;99.90;;;;;;5027123;28;20196;-73
2022/10/01 08:52:36;;;;;;;;;;;9.40;99.90;;;;;;5011047;28;19915;-73
2022/10/01 08:55:03;;;;;;;;;;;9.40;99.90;;;;;;5043811;28;19948;-73
2022/10/01 08:57:31;;;;;;;;;;;9.40;99.90;;;;;;5044697;28;20123;-73
2022/10/01 08:59:58;;;;;;;;;;;9.40;99.90;;;;;;5026869;28;19909;-73
2022/10/01 09:02:24;;;;;;;;;;;9.40;99.90;;;;;;5043741;28;19909;-73
2022/10/01 09:04:52;;;;;;;;;;;9.40;99.90;;;;;;5043995;28;19920;-73
2022/10/01 09:07:38;;;;;;;;;;;9.50;99.90;;;;;;5043417;28;19917;-74
2022/10/01 09:10:07;;;;;;;;;;;9.50;99.90;;;;;;5044440;28;19916;-74
2022/10/01 09:12:44;;;;;;;;;;;9.50;99.90;;;;;;5026107;28;20231;-73
2022/10/01 09:15:48;;;;;;;;;;;9.50;99.90;;;;;;5060332;28;19942;-73
2022/10/01 09:18:40;;;;;;;;;;;9.50;99.90;;;;;;5010896;28;19959;-72
2022/10/01 09:21:35;;;;;;;;;;;9.60;99.90;;;;;;5015731;28;19913;-72
2022/10/01 09:24:13;;;;;;;;;;;9.60;99.90;;;;;;5059976;28;19932;-72
2022/10/01 09:26:40;;;;;;;;;;;9.60;99.90;;;;;;5026326;28;19967;-72
2022/10/01 09:29:08;;;;;;;;;;;9.60;99.90;;;;;;5043042;28;19909;-72
2022/10/01 09:31:39;;;;;;;;;;;9.60;99.90;;;;;;5026776;28;19912;-72
2022/10/01 09:34:14;;;;;;;;;;;9.70;99.90;;;;;;5026617;28;19916;-72
2022/10/01 09:36:39;;;;;;;;;;;9.70;99.90;;;;;;5042829;28;19913;-72
2022/10/01 09:39:21;;;;;;;;;;;9.70;99.90;;;;;;5043926;28;19909;-72
2022/10/01 09:41:47;;;;;;;;;;;9.70;99.90;;;;;;5025316;28;19924;-72
2022/10/01 09:44:17;;;;;;;;;;;9.70;99.90;;;;;;5026372;28;20115;-72
2022/10/01 09:46:45;;;;;;;;;;;9.70;99.90;;;;;;5025893;28;19956;-72
2022/10/01 09:49:18;;;;;;;;;;;9.80;99.90;;;;;;5026107;28;19951;-72
2022/10/01 09:51:46;;;;;;;;;;;9.80;99.90;;;;;;5026491;28;20226;-72
2022/10/01 09:54:25;;;;;;;;;;;9.90;99.90;;;;;;5042718;28;19917;-72
2022/10/01 09:56:54;;;;;;;;;;;9.90;99.90;;;;;;5024645;28;20015;-72
2022/10/01 09:59:21;;;;;;;;;;;9.90;99.90;;;;;;5025982;28;19909;-72
2022/10/01 10:01:47;;;;;;;;;;;9.90;99.90;;;;;;5042293;28;19921;-72
2022/10/01 10:04:22;;;;;;;;;;;9.90;99.90;;;;;;5042535;28;20161;-72
2022/10/01 10:06:47;;;;;;;;;;;9.90;99.90;;;;;;5041643;28;20010;-72
2022/10/01 10:09:15;;;;;;;;;;;9.90;99.90;;;;;;5025354;28;19909;-72
2022/10/01 10:11:41;;;;;;;;;;;9.90;99.90;;;;;;5041786;28;19980;-72
2022/10/01 10:14:15;;;;;;;;;;;9.90;99.90;;;;;;5025484;28;19917;-72
2022/10/01 10:16:46;;;;;;;;;;;10.00;99.90;;;;;;5024850;28;19909;-72
2022/10/01 10:19:17;;;;;;;;;;;10.00;99.90;;;;;;5026205;28;19909;-72
2022/10/01 10:21:52;;;;;;;;;;;10.00;99.90;;;;;;5041949;28;19921;-72
2022/10/01 10:24:36;;;;;;;;;;;10.00;99.90;;;;;;5043186;28;19913;-72
2022/10/01 10:27:04;;;;;;;;;;;10.00;99.90;;;;;;5025393;28;19921;-71
2022/10/01 10:29:31;;;;;;;;;;;10.00;99.90;;;;;;5041818;28;20143;-72
2022/10/01 10:31:57;;;;;;;;;;;10.00;99.90;;;;;;5024457;28;20310;-72
2022/10/01 10:34:23;;;;;;;;;;;10.10;99.90;;;;;;5041833;28;19916;-72
2022/10/01 10:36:50;;;;;;;;;;;10.10;99.90;;;;;;5042696;28;19913;-72
2022/10/01 10:39:28;;;;;;;;;;;10.10;99.90;;;;;;5025525;28;19909;-72
2022/10/01 10:41:54;;;;;;;;;;;10.20;99.90;;;;;;5041923;28;19984;-72
2022/10/01 10:44:20;;;;;;;;;;;10.20;99.90;;;;;;5025170;28;19940;-72
2022/10/01 10:46:46;;;;;;;;;;;10.30;99.90;;;;;;5041590;28;19913;-72
2022/10/01 10:49:19;;;;;;;;;;;10.30;99.90;;;;;;5037514;28;19921;-72
2022/10/01 10:51:55;;;;;;;;;;;10.30;99.90;;;;;;5042030;28;20116;-73
2022/10/01 10:54:28;;;;;;;;;;;10.30;99.90;;;;;;5041042;28;20227;-72
2022/10/01 10:57:17;;;;;;;;;;;10.30;99.90;;;;;;5024777;28;19971;-72
2022/10/01 10:59:54;;;;;;;;;;;10.30;99.90;;;;;;5041830;28;20191;-75
2022/10/01 11:02:20;;;;;;;;;;;10.40;99.90;;;;;;5040630;28;19909;-75
2022/10/01 11:04:46;;;;;;;;;;;10.40;99.90;;;;;;5024044;28;19999;-75
2022/10/01 11:07:12;;;;;;;;;;;10.40;99.90;;;;;;5008101;28;19914;-76
2022/10/01 11:09:44;;;;;;;;;;;10.30;99.90;;;;;;5008002;28;19909;-75
2022/10/01 11:12:13;;;;;;;;;;;10.40;99.90;;;;;;5022465;28;19914;-75
2022/10/01 11:14:50;;;;;;;;;;;10.40;99.90;;;;;;5037890;28;19969;-76
2022/10/01 11:17:21;;;;;;;;;;;10.40;99.90;;;;;;5036038;28;20181;-76
2022/10/01 11:20:14;;;;;;;;;;;10.50;99.90;;;;;;5022428;28;19917;-76
2022/10/01 11:23:14;;;;;;;;;;;10.50;99.90;;;;;;5029851;28;19940;-76
2022/10/01 11:26:11;;;;;;;;;;;10.50;99.90;;;;;;5020063;28;20231;-76
2022/10/01 11:28:45;;;;;;;;;;;10.50;99.90;;;;;;5041726;28;19936;-75
2022/10/01 11:31:21;;;;;;;;;;;10.70;99.90;;;;;;5041202;28;19913;-76
2022/10/01 11:33:54;;;;;;;;;;;10.70;99.90;;;;;;5036672;28;19923;-76
2022/10/01 11:36:28;;;;;;;;;;;10.90;99.90;;;;;;5041973;28;19916;-75
2022/10/01 11:39:04;;;;;;;;;;;10.90;99.90;;;;;;5024092;28;20159;-76
2022/10/01 11:41:34;;;;;;;;;;;11.10;99.90;;;;;;5024596;28;19976;-76
2022/10/01 11:44:06;;;;;;;;;;;11.10;99.90;;;;;;5043706;28;20219;-76
2022/10/01 11:46:38;;;;;;;;;;;11.20;99.90;;;;;;5044513;28;19967;-76
2022/10/01 11:49:18;;;;;;;;;;;11.30;99.90;;;;;;5026231;28;19985;-76
2022/10/01 11:52:26;;;;;;;;;;;11.30;99.90;;;;;;5030812;28;19917;-75
2022/10/01 12:00:36;;;;;;;;;;;11.30;99.90;;;;;;5030284;28;19955;-75
2022/10/01 12:03:01;;;;;;;;;;;11.30;99.90;;;;;;5026861;28;19947;-75
2022/10/01 12:05:30;;;;;;;;;;;11.30;99.90;;;;;;5044254;28;19925;-75
2022/10/01 12:08:18;;;;;;;;;;;11.20;99.90;;;;;;5042894;28;20230;-75
2022/10/01 12:10:47;;;;;;;;;;;11.20;99.90;;;;;;5011308;28;19917;-75
2022/10/01 12:13:26;;;;;;;;;;;11.30;99.90;;;;;;5027831;28;19921;-75
2022/10/01 12:16:00;;;;;;;;;;;11.30;99.90;;;;;;5043393;28;20135;-75
2022/10/01 12:19:10;;;;;;;;;;;11.30;99.90;;;;;;5026939;28;19939;-75
2022/10/01 12:21:38;;;;;;;;;;;11.30;99.90;;;;;;4992588;28;20279;-75
2022/10/01 12:24:12;;;;;;;;;;;11.30;99.90;;;;;;4968552;28;19941;-75
2022/10/01 12:26:59;;;;;;;;;;;11.30;99.90;;;;;;4975620;28;19956;-75
2022/10/01 12:29:47;;;;;;;;;;;11.30;99.90;;;;;;5037278;28;19909;-75
2022/10/01 12:32:46;;;;;;;;;;;11.40;99.90;;;;;;5043899;28;19910;-75
2022/10/01 12:35:34;;;;;;;;;;;11.50;99.90;;;;;;5045200;28;20151;-75
2022/10/01 12:38:26;;;;;;;;;;;11.60;99.90;;;;;;5043359;28;19932;-77
2022/10/01 12:41:18;;;;;;;;;;;11.60;99.90;;;;;;5027696;28;19924;-76
2022/10/01 12:44:12;;;;;;;;;;;11.60;99.90;;;;;;5028947;28;19939;-76
2022/10/01 12:47:24;;;;;;;;;;;11.60;99.90;;;;;;5044302;28;20208;-76
2022/10/01 12:50:17;;;;;;;;;;;11.60;99.90;;;;;;5022043;28;19910;-76
2022/10/01 12:53:28;;;;;;;;;;;11.70;99.90;;;;;;5024720;28;19944;-76
2022/10/01 12:55:59;;;;;;;;;;;11.70;99.90;;;;;;5036723;28;19913;-76
2022/10/01 12:58:38;;;;;;;;;;;11.80;99.90;;;;;;5027268;28;19976;-76
2022/10/01 13:01:10;;;;;;;;;;;11.80;99.90;;;;;;5026507;28;20234;-76
2022/10/01 13:04:04;;;;;;;;;;;11.80;99.90;;;;;;5043523;28;19913;-76
2022/10/01 13:06:47;;;;;;;;;;;11.90;99.90;;;;;;5043005;28;20100;-75
2022/10/01 13:09:40;;;;;;;;;;;11.90;99.90;;;;;;5009536;28;19984;-75
2022/10/01 13:12:13;;;;;;;;;;;12.00;99.90;;;;;;5027021;28;19909;-76
2022/10/01 13:14:43;;;;;;;;;;;12.00;99.90;;;;;;5042860;28;19980;-75
2022/10/01 13:17:25;;;;;;;;;;;12.10;99.90;;;;;;5010369;28;19943;-76
2022/10/01 13:20:00;;;;;;;;;;;12.10;99.90;;;;;;5013630;28;19909;-76
2022/10/01 13:22:58;;;;;;;;;;;12.20;99.90;;;;;;5042121;28;19916;-75
2022/10/01 13:25:39;;;;;;;;;;;12.10;99.90;;;;;;5043223;28;19913;-76
2022/10/01 13:28:25;;;;;;;;;;;12.20;99.90;;;;;;5043456;28;19912;-75
2022/10/01 13:30:55;;;;;;;;;;;12.20;99.90;;;;;;5042601;28;20204;-75
2022/10/01 13:33:31;;;;;;;;;;;12.20;99.90;;;;;;5026230;28;19917;-76
2022/10/01 13:35:58;;;;;;;;;;;12.20;99.90;;;;;;5026489;28;19909;-76
2022/10/01 13:38:30;;;;;;;;;;;12.20;99.90;;;;;;5025557;28;19909;-76
2022/10/01 13:41:00;;;;;;;;;;;12.20;99.90;;;;;;5044123;28;19923;-76
2022/10/01 13:43:26;;;;;;;;;;;12.20;99.90;;;;;;5042379;28;19909;-76
2022/10/01 13:45:53;;;;;;;;;;;12.20;99.90;;;;;;5026131;28;20227;-76
2022/10/01 13:48:23;;;;;;;;;;;12.30;99.90;;;;;;5035953;28;20188;-76
2022/10/01 13:51:05;;;;;;;;;;;12.30;99.90;;;;;;5044332;28;19936;-76
2022/10/01 13:53:53;;;;;;;;;;;12.40;99.90;;;;;;5042873;28;19909;-76
2022/10/01 13:56:35;;;;;;;;;;;12.30;99.90;;;;;;5008867;28;19955;-76
2022/10/01 13:59:01;;;;;;;;;;;12.30;99.90;;;;;;5042259;28;19944;-76
2022/10/01 14:01:37;;;;;;;;;;;12.40;99.90;;;;;;5025197;28;19928;-77
2022/10/01 14:04:08;;;;;;;;;;;12.40;99.90;;;;;;5042665;28;19917;-76
2022/10/01 14:06:33;;;;;;;;;;;12.40;99.90;;;;;;5040767;28;19917;-77
2022/10/01 14:09:12;;;;;;;;;;;12.50;99.90;;;;;;5043434;28;20196;-76
2022/10/01 14:17:30;;;;;;;;;;;12.50;99.90;;;;;;5027436;28;19974;-76
2022/10/01 14:19:56;;;;;;;;;;;12.50;99.90;;;;;;5017204;28;19972;-76
2022/10/01 14:22:32;;;;;;;;;;;12.50;99.90;;;;;;5025537;28;19951;-76
2022/10/01 14:25:27;;;;;;;;;;;12.50;99.90;;;;;;5024931;28;19917;-76
2022/10/01 14:28:17;;;;;;;;;;;12.50;99.90;;;;;;5020688;28;20159;-76
2022/10/01 14:31:01;;;;;;;;;;;12.40;99.90;;;;;;5042975;28;19909;-76
2022/10/01 14:33:44;;;;;;;;;;;12.40;99.90;;;;;;5024937;28;19917;-76
2022/10/01 14:36:27;;;;;;;;;;;12.40;99.90;;;;;;5025121;28;20116;-76
2022/10/01 14:39:11;;;;;;;;;;;12.40;99.90;;;;;;5041642;28;19924;-76
2022/10/01 14:41:36;;;;;;;;;;;12.40;99.90;;;;;;5041789;28;19909;-76
2022/10/01 14:44:27;;;;;;;;;;;12.40;99.90;;;;;;5025168;28;20101;-76
2022/10/01 14:46:57;;;;;;;;;;;12.40;99.90;;;;;;5024502;28;19933;-76
2022/10/01 14:49:27;;;;;;;;;;;12.40;99.90;;;;;;5022024;28;19917;-76
2022/10/01 14:52:03;;;;;;;;;;;12.40;99.90;;;;;;5041506;28;19909;-73
2022/10/01 14:54:30;;;;;;;;;;;12.40;99.90;;;;;;5040903;28;19913;-76
2022/10/01 14:56:55;;;;;;;;;;;12.50;99.90;;;;;;5041652;28;20159;-76
2022/10/01 14:59:33;;;;;;;;;;;12.50;99.90;;;;;;5008796;28;19909;-76
2022/10/01 15:02:00;;;;;;;;;;;12.50;99.90;;;;;;5008730;28;19917;-75
2022/10/01 15:04:26;;;;;;;;;;;12.60;99.90;;;;;;5025350;28;19913;-76
2022/10/01 15:06:52;;;;;;;;;;;12.50;99.90;;;;;;5040410;28;19928;-76